Time;durP1;ratioP1;P1;durP2;ratioP2;P2;SDS_P1;SDS_P2;PMS_P1;PMS_P2;Temp;Humidity;BMP_temperature;BMP_pressure;BME280_temperature;BME280_humidity;BME280_pressure;Samples;Min_cycle;Max_cycle;Signal;HPM_P1;HPM_P2
2022/07/10 00:02:18;;;;;;;0.80;0.80;;;14.50;99.90;;;;;;5061698;28;20507;-75
2022/07/10 00:05:07;;;;;;;0.50;0.50;;;14.60;99.90;;;;;;5060270;28;20429;-75
2022/07/10 00:07:56;;;;;;;0.50;0.50;;;14.40;99.90;;;;;;5060679;28;20452;-74
2022/07/10 00:10:45;;;;;;;0.50;0.50;;;14.30;99.90;;;;;;5061142;28;20455;-75
2022/07/10 00:13:33;;;;;;;0.50;0.50;;;14.50;99.90;;;;;;5060435;28;20518;-75
2022/07/10 00:16:21;;;;;;;0.50;0.50;;;14.50;99.90;;;;;;5060287;28;20433;-77
2022/07/10 00:19:10;;;;;;;0.80;0.70;;;14.40;99.90;;;;;;5059512;28;20460;-76
2022/07/10 00:21:58;;;;;;;0.50;0.50;;;14.40;99.90;;;;;;5062765;28;20474;-76
2022/07/10 00:24:46;;;;;;;0.40;0.40;;;14.40;99.90;;;;;;5060623;28;20949;-76
2022/07/10 00:27:36;;;;;;;1.30;1.10;;;14.40;99.90;;;;;;5063430;28;20482;-77
2022/07/10 00:30:24;;;;;;;3.60;1.90;;;14.40;99.90;;;;;;5059974;28;20519;-77
2022/07/10 00:33:12;;;;;;;0.50;0.50;;;14.30;99.90;;;;;;5062985;28;20904;-76
2022/07/10 00:36:00;;;;;;;0.57;0.57;;;14.30;99.90;;;;;;5060837;28;20440;-76
2022/07/10 00:38:49;;;;;;;0.40;0.40;;;14.40;99.90;;;;;;5061383;28;20463;-76
2022/07/10 00:41:37;;;;;;;0.43;0.43;;;14.30;99.90;;;;;;5063754;28;20576;-74
2022/07/10 00:44:26;;;;;;;0.50;0.50;;;14.30;99.90;;;;;;5063543;28;20416;-76
2022/07/10 00:47:17;;;;;;;0.40;0.40;;;14.30;99.90;;;;;;5062011;28;20439;-75
2022/07/10 00:50:07;;;;;;;0.40;0.40;;;14.20;99.90;;;;;;5062661;28;20487;-73
2022/07/10 00:52:55;;;;;;;0.40;0.40;;;14.20;99.90;;;;;;5062747;28;20420;-75
2022/07/10 00:55:44;;;;;;;0.70;0.60;;;14.20;99.90;;;;;;5062863;28;20443;-73
2022/07/10 00:58:32;;;;;;;0.40;0.40;;;14.40;99.90;;;;;;5042326;28;20437;-77
2022/07/10 01:01:22;;;;;;;0.50;0.50;;;14.20;99.90;;;;;;5058611;28;20481;-72
2022/07/10 01:04:11;;;;;;;0.90;0.70;;;14.20;99.90;;;;;;5075615;28;20433;-73
2022/07/10 01:06:59;;;;;;;0.50;0.50;;;14.20;99.90;;;;;;5074499;28;20439;-74
2022/07/10 01:09:47;;;;;;;1.00;1.00;;;14.20;99.90;;;;;;5074494;28;20482;-75
2022/07/10 01:12:36;;;;;;;2.50;0.50;;;14.10;99.90;;;;;;5074281;28;20468;-74
2022/07/10 01:15:24;;;;;;;7.83;0.80;;;14.10;99.90;;;;;;5073478;28;20463;-76
2022/07/10 01:18:14;;;;;;;0.53;0.53;;;14.10;99.90;;;;;;5075510;28;20460;-71
2022/07/10 01:21:03;;;;;;;0.77;0.77;;;14.10;99.90;;;;;;5074474;28;20428;-73
2022/07/10 01:23:51;;;;;;;1.00;0.67;;;14.10;99.90;;;;;;5075207;28;20638;-73
2022/07/10 01:26:42;;;;;;;0.50;0.50;;;14.10;99.90;;;;;;5071948;28;20428;-74
2022/07/10 01:29:32;;;;;;;0.50;0.50;;;14.10;99.90;;;;;;5072672;28;20535;-74
2022/07/10 01:32:20;;;;;;;0.60;0.60;;;14.10;99.90;;;;;;5075018;28;20468;-73
2022/07/10 01:35:09;;;;;;;0.40;0.40;;;14.00;99.90;;;;;;5052688;28;20405;-75
2022/07/10 01:37:59;;;;;;;0.40;0.40;;;14.00;99.90;;;;;;5047911;28;20452;-73
2022/07/10 01:40:47;;;;;;;0.40;0.40;;;14.00;99.90;;;;;;5063602;28;20432;-74
2022/07/10 01:43:35;;;;;;;0.47;0.47;;;14.00;99.90;;;;;;5061227;28;20451;-75
2022/07/10 01:46:25;;;;;;;0.50;0.50;;;14.00;99.90;;;;;;5059864;28;20429;-74
2022/07/10 01:49:13;;;;;;;0.50;0.50;;;13.90;99.90;;;;;;5064319;28;20459;-74
2022/07/10 01:52:01;;;;;;;0.40;0.40;;;14.00;99.90;;;;;;5058266;28;20464;-74
2022/07/10 01:54:51;;;;;;;0.50;0.50;;;14.10;99.90;;;;;;5059917;28;20432;-74
2022/07/10 01:57:39;;;;;;;0.50;0.50;;;14.00;99.90;;;;;;5059398;28;20506;-76
2022/07/10 02:00:27;;;;;;;0.50;0.50;;;14.00;99.90;;;;;;5057748;28;20420;-76
2022/07/10 02:06:21;;;;;;;1.33;1.33;;;13.90;99.90;;;;;;5059193;28;20687;-77
2022/07/10 02:09:10;;;;;;;0.50;0.50;;;13.90;99.90;;;;;;5058377;28;20453;-76
2022/07/10 02:11:59;;;;;;;0.50;0.50;;;13.90;99.90;;;;;;5059810;28;20456;-75
2022/07/10 02:14:47;;;;;;;0.40;0.40;;;13.90;99.90;;;;;;5056666;28;20975;-74
2022/07/10 02:17:35;;;;;;;4.07;0.97;;;13.80;99.90;;;;;;5057232;28;20440;-77
2022/07/10 02:20:23;;;;;;;0.50;0.50;;;13.80;99.90;;;;;;5058078;28;20453;-74
2022/07/10 02:23:11;;;;;;;0.40;0.40;;;13.80;99.90;;;;;;5057746;28;20783;-75
2022/07/10 02:26:00;;;;;;;0.40;0.40;;;13.80;99.90;;;;;;5057870;28;20813;-75
2022/07/10 02:28:50;;;;;;;0.50;0.50;;;13.80;99.90;;;;;;5056701;28;20447;-76
2022/07/10 02:31:40;;;;;;;0.47;0.47;;;13.60;99.90;;;;;;5057432;28;20467;-74
2022/07/10 02:34:29;;;;;;;0.40;0.40;;;13.60;99.90;;;;;;5056113;28;20518;-74
2022/07/10 02:37:17;;;;;;;0.50;0.50;;;13.60;99.90;;;;;;5055744;28;20416;-75
2022/07/10 02:40:07;;;;;;;0.93;0.50;;;13.70;99.90;;;;;;5058062;28;20428;-76
2022/07/10 02:42:55;;;;;;;0.40;0.40;;;13.60;99.90;;;;;;5057842;28;20420;-74
2022/07/10 02:45:44;;;;;;;0.50;0.50;;;13.50;99.90;;;;;;5057971;28;21011;-73
2022/07/10 02:48:34;;;;;;;0.40;0.40;;;13.50;99.90;;;;;;5057036;28;20872;-75
2022/07/10 02:51:22;;;;;;;0.40;0.40;;;13.50;99.90;;;;;;5057921;28;20435;-75
2022/07/10 02:54:10;;;;;;;0.57;0.57;;;13.40;99.90;;;;;;5059306;28;20867;-74
2022/07/10 02:56:58;;;;;;;0.80;0.50;;;13.40;99.90;;;;;;5057038;28;20432;-75
2022/07/10 02:59:46;;;;;;;0.50;0.50;;;13.40;99.90;;;;;;5058157;28;20439;-76
2022/07/10 03:02:36;;;;;;;0.40;0.40;;;13.40;99.90;;;;;;5058998;28;20435;-76
2022/07/10 03:05:24;;;;;;;0.40;0.40;;;13.40;99.90;;;;;;5058051;28;20510;-74
2022/07/10 03:08:13;;;;;;;2.53;0.83;;;13.40;99.90;;;;;;5057353;28;20456;-75
2022/07/10 03:11:01;;;;;;;0.50;0.50;;;13.40;99.90;;;;;;5060754;28;20435;-75
2022/07/10 03:13:49;;;;;;;0.40;0.40;;;13.40;99.90;;;;;;5061597;28;20596;-75
2022/07/10 03:16:38;;;;;;;0.50;0.50;;;13.40;99.90;;;;;;5060811;28;20625;-73
2022/07/10 03:19:27;;;;;;;3.13;0.50;;;13.40;99.90;;;;;;5059745;28;20490;-73
2022/07/10 03:22:15;;;;;;;0.40;0.40;;;13.40;99.90;;;;;;5059250;28;20416;-75
2022/07/10 03:25:04;;;;;;;0.53;0.53;;;13.40;99.90;;;;;;5061016;28;20428;-74
2022/07/10 03:27:52;;;;;;;0.70;0.70;;;13.40;99.90;;;;;;5060913;28;20487;-75
2022/07/10 03:30:40;;;;;;;0.47;0.47;;;13.50;99.90;;;;;;5061851;28;20499;-74
2022/07/10 03:33:29;;;;;;;0.47;0.47;;;13.50;99.90;;;;;;5063833;28;20533;-75
2022/07/10 03:36:18;;;;;;;0.60;0.50;;;13.50;99.90;;;;;;5063843;28;20443;-75
2022/07/10 03:39:06;;;;;;;0.50;0.50;;;13.40;99.90;;;;;;5063001;28;20452;-72
2022/07/10 03:41:55;;;;;;;0.50;0.50;;;13.40;99.90;;;;;;5070524;28;20853;-75
2022/07/10 03:44:43;;;;;;;0.40;0.40;;;13.30;99.90;;;;;;5065377;28;20489;-75
2022/07/10 03:47:31;;;;;;;0.83;0.50;;;13.40;99.90;;;;;;5060861;28;20463;-74
2022/07/10 03:50:19;;;;;;;0.40;0.40;;;13.20;99.90;;;;;;5060074;28;20450;-76
2022/07/10 03:53:09;;;;;;;0.60;0.50;;;13.10;99.90;;;;;;5060803;28;20509;-76
2022/07/10 03:55:57;;;;;;;0.50;0.50;;;13.00;99.90;;;;;;5060886;28;20450;-73
2022/07/10 03:58:44;;;;;;;1.37;0.87;;;13.00;99.90;;;;;;5056467;28;20521;-73
2022/07/10 04:01:32;;;;;;;0.50;0.50;;;13.00;99.90;;;;;;5059908;28;20431;-75
2022/07/10 04:04:21;;;;;;;0.60;0.60;;;13.10;99.90;;;;;;5062031;28;20428;-73
2022/07/10 04:07:12;;;;;;;0.60;0.60;;;13.10;99.90;;;;;;5062267;28;20432;-75
2022/07/10 04:10:01;;;;;;;0.40;0.40;;;13.20;99.90;;;;;;5061421;28;20416;-75
2022/07/10 04:12:49;;;;;;;0.50;0.50;;;13.20;99.90;;;;;;5061551;28;21034;-73
2022/07/10 04:15:37;;;;;;;0.50;0.50;;;13.30;99.90;;;;;;5060056;28;20428;-74
2022/07/10 04:18:26;;;;;;;0.50;0.50;;;13.30;99.90;;;;;;5060286;28;20456;-73
2022/07/10 04:21:14;;;;;;;0.40;0.40;;;13.40;99.90;;;;;;5059179;28;20446;-73
2022/07/10 04:24:02;;;;;;;0.40;0.40;;;13.20;99.90;;;;;;5060748;28;20424;-75
2022/07/10 04:26:55;;;;;;;0.50;0.50;;;13.30;99.90;;;;;;5060170;28;20428;-71
2022/07/10 04:29:43;;;;;;;0.50;0.50;;;13.30;99.90;;;;;;5059724;28;20425;-76
2022/07/10 04:32:31;;;;;;;0.40;0.40;;;13.40;99.90;;;;;;5060773;28;20453;-76
2022/07/10 04:35:20;;;;;;;0.40;0.40;;;13.40;99.90;;;;;;5059624;28;20904;-76
2022/07/10 04:38:08;;;;;;;0.40;0.40;;;13.50;99.90;;;;;;5059670;28;20503;-75
2022/07/10 04:40:56;;;;;;;0.50;0.50;;;13.50;99.90;;;;;;5059582;28;20439;-76
2022/07/10 04:43:45;;;;;;;0.50;0.50;;;13.50;99.90;;;;;;5059826;28;20428;-75
2022/07/10 04:46:33;;;;;;;0.70;0.70;;;13.60;99.90;;;;;;5057742;28;20487;-76
2022/07/10 04:49:22;;;;;;;0.60;0.60;;;13.70;99.90;;;;;;5059334;28;20460;-79
2022/07/10 04:52:10;;;;;;;0.43;0.43;;;13.80;99.90;;;;;;5061735;28;20428;-75
2022/07/10 04:54:58;;;;;;;1.00;0.60;;;13.80;99.90;;;;;;5058068;28;20424;-75
2022/07/10 04:57:46;;;;;;;0.73;0.73;;;13.90;99.90;;;;;;5045136;28;20450;-76
2022/07/10 05:00:35;;;;;;;0.50;0.50;;;13.90;99.90;;;;;;5040118;28;20475;-75
2022/07/10 05:03:23;;;;;;;0.70;0.70;;;13.90;99.90;;;;;;5042015;28;20429;-76
2022/07/10 05:06:12;;;;;;;4.63;0.60;;;14.00;99.90;;;;;;5040508;28;20479;-74
2022/07/10 05:09:00;;;;;;;0.50;0.50;;;14.00;99.90;;;;;;5040814;28;20452;-75
2022/07/10 05:11:48;;;;;;;0.60;0.60;;;14.10;99.90;;;;;;5041838;28;20964;-75
2022/07/10 05:14:36;;;;;;;0.60;0.60;;;14.20;99.90;;;;;;5040132;28;20481;-74
2022/07/10 05:17:26;;;;;;;0.40;0.40;;;14.20;99.90;;;;;;5040576;28;20432;-75
2022/07/10 05:20:14;;;;;;;0.50;0.50;;;14.30;99.90;;;;;;5042275;28;20977;-76
2022/07/10 05:23:03;;;;;;;1.03;1.03;;;14.40;99.90;;;;;;5039989;28;20432;-75
2022/07/10 05:25:51;;;;;;;0.60;0.60;;;14.60;99.90;;;;;;5039694;28;20938;-74
2022/07/10 05:28:39;;;;;;;0.40;0.40;;;14.60;99.90;;;;;;5040073;28;20458;-76
2022/07/10 05:31:28;;;;;;;0.40;0.40;;;14.60;99.90;;;;;;5039805;28;20421;-74
2022/07/10 05:34:18;;;;;;;0.50;0.50;;;14.70;99.90;;;;;;5040804;28;20456;-74
2022/07/10 05:37:06;;;;;;;0.60;0.60;;;14.90;99.90;;;;;;5062301;22;20491;-70
2022/07/10 05:39:55;;;;;;;0.87;0.70;;;14.90;99.90;;;;;;5055782;28;20424;-71
2022/07/10 05:42:43;;;;;;;0.40;0.40;;;15.00;99.90;;;;;;5055944;28;20491;-70
2022/07/10 05:45:31;;;;;;;0.40;0.40;;;15.00;99.90;;;;;;5057251;28;20482;-70
2022/07/10 05:48:20;;;;;;;0.40;0.40;;;14.10;99.90;;;;;;5054347;28;20435;-71
2022/07/10 05:51:09;;;;;;;0.43;0.43;;;15.20;99.90;;;;;;5053930;28;20436;-71
2022/07/10 05:54:17;;;;;;;0.40;0.40;;;15.20;99.90;;;;;;5055418;28;21068;-70
2022/07/10 05:57:06;;;;;;;0.40;0.40;;;15.10;99.90;;;;;;5053779;28;20224;-71
2022/07/10 05:59:54;;;;;;;0.90;0.50;;;15.20;99.90;;;;;;5055041;28;20432;-71
2022/07/10 06:02:42;;;;;;;0.40;0.40;;;15.10;99.90;;;;;;5052894;28;20436;-71
2022/07/10 06:05:30;;;;;;;0.77;0.77;;;15.10;99.90;;;;;;5052588;28;20435;-71
2022/07/10 06:08:19;;;;;;;0.43;0.43;;;15.10;99.90;;;;;;5054794;28;20448;-71
2022/07/10 06:11:08;;;;;;;0.50;0.50;;;15.20;99.90;;;;;;5054469;28;20435;-71
2022/07/10 06:13:57;;;;;;;0.40;0.40;;;15.30;99.90;;;;;;5053467;28;20491;-70
2022/07/10 06:16:45;;;;;;;0.40;0.40;;;15.30;99.90;;;;;;5054754;28;20459;-71
2022/07/10 06:19:33;;;;;;;0.40;0.40;;;15.10;99.90;;;;;;5053227;28;20933;-71
2022/07/10 06:22:33;;;;;;;0.40;0.40;;;15.30;99.90;;;;;;5059747;28;20464;-70
2022/07/10 06:25:23;;;;;;;0.50;0.50;;;15.40;99.90;;;;;;5055954;28;20420;-71
2022/07/10 06:28:11;;;;;;;0.70;0.70;;;15.50;99.90;;;;;;5055658;28;20823;-71
2022/07/10 06:30:59;;;;;;;0.40;0.40;;;15.50;99.90;;;;;;5055559;28;20421;-70
2022/07/10 06:33:48;;;;;;;0.40;0.40;;;15.50;99.90;;;;;;5055816;28;20549;-70
2022/07/10 06:36:36;;;;;;;0.50;0.50;;;15.70;99.90;;;;;;5055150;28;20456;-70
2022/07/10 06:39:24;;;;;;;0.50;0.50;;;15.80;99.90;;;;;;5053297;28;20482;-70
2022/07/10 06:42:14;;;;;;;0.40;0.40;;;15.90;99.90;;;;;;5053688;28;20498;-70
2022/07/10 06:45:02;;;;;;;0.47;0.47;;;15.80;99.90;;;;;;5053354;28;20428;-70
2022/07/10 06:47:57;;;;;;;0.60;0.60;;;;;;;;;;5053717;28;20444;-69
2022/07/10 06:50:45;;;;;;;0.80;0.80;;;15.70;99.90;;;;;;5054676;28;20428;-70
2022/07/10 06:53:33;;;;;;;0.60;0.50;;;15.70;99.90;;;;;;5052484;28;20201;-71
2022/07/10 06:56:22;;;;;;;0.40;0.40;;;15.70;99.90;;;;;;5052795;28;20217;-70
2022/07/10 06:59:11;;;;;;;0.60;0.60;;;15.70;99.90;;;;;;5052083;28;20478;-70
2022/07/10 07:01:59;;;;;;;3.27;1.20;;;15.70;99.90;;;;;;5061470;28;20428;-69
2022/07/10 07:04:47;;;;;;;0.40;0.40;;;15.70;99.90;;;;;;5067199;28;20185;-69
2022/07/10 07:07:36;;;;;;;0.40;0.40;;;15.60;99.90;;;;;;5068447;28;20452;-70
2022/07/10 07:10:24;;;;;;;0.77;0.77;;;15.60;99.90;;;;;;5068677;28;20446;-70
2022/07/10 07:13:12;;;;;;;4.20;0.70;;;15.90;99.90;;;;;;5068347;28;20425;-70
2022/07/10 07:16:05;;;;;;;2.50;0.87;;;16.20;99.90;;;;;;5057429;28;20225;-70
2022/07/10 07:18:56;;;;;;;1.03;0.80;;;16.20;99.90;;;;;;5054601;28;20460;-71
2022/07/10 07:24:50;;;;;;;4.93;1.03;;;16.70;99.90;;;;;;5052760;28;20204;-71
2022/07/10 07:27:39;;;;;;;1.33;0.50;;;16.70;99.90;;;;;;5051667;28;20449;-71
2022/07/10 07:30:27;;;;;;;0.40;0.40;;;16.60;99.90;;;;;;5051285;28;20202;-71
2022/07/10 07:33:17;;;;;;;0.40;0.40;;;16.20;99.90;;;;;;5052074;28;20228;-70
2022/07/10 07:36:05;;;;;;;0.50;0.50;;;16.00;99.90;;;;;;5052819;28;20233;-71
2022/07/10 07:38:53;;;;;;;0.83;0.80;;;15.90;99.90;;;;;;5051648;28;20613;-71
2022/07/10 07:41:41;;;;;;;0.40;0.40;;;15.80;99.90;;;;;;5051142;28;20796;-70
2022/07/10 07:44:30;;;;;;;0.43;0.43;;;15.90;99.90;;;;;;5050594;28;20421;-71
2022/07/10 07:47:18;;;;;;;0.40;0.40;;;16.00;99.90;;;;;;5051936;28;20982;-71
2022/07/10 07:50:08;;;;;;;0.40;0.40;;;16.30;99.90;;;;;;5051923;28;20486;-70
2022/07/10 07:52:56;;;;;;;0.40;0.40;;;16.60;99.90;;;;;;5051386;28;20683;-71
2022/07/10 07:55:44;;;;;;;0.40;0.40;;;16.90;99.90;;;;;;5052185;28;20464;-71
2022/07/10 07:58:32;;;;;;;0.40;0.40;;;16.80;99.90;;;;;;5037152;28;20197;-71
2022/07/10 08:01:21;;;;;;;0.40;0.40;;;16.70;99.90;;;;;;5035852;28;20205;-71
2022/07/10 08:04:09;;;;;;;0.80;0.80;;;16.60;99.90;;;;;;5037290;28;20206;-71
2022/07/10 08:07:01;;;;;;;1.47;1.23;;;16.90;99.90;;;;;;5036873;28;20288;-71
2022/07/10 08:09:49;;;;;;;1.87;0.80;;;16.80;99.90;;;;;;5037621;28;20220;-71
2022/07/10 08:12:38;;;;;;;0.40;0.40;;;16.80;99.90;;;;;;5037126;28;20209;-71
2022/07/10 08:15:27;;;;;;;0.53;0.50;;;16.60;99.90;;;;;;5037457;28;20233;-70
2022/07/10 08:18:15;;;;;;;0.40;0.40;;;16.80;99.90;;;;;;5037349;28;20941;-71
2022/07/10 08:21:03;;;;;;;0.57;0.57;;;17.00;99.90;;;;;;5038019;28;20293;-71
2022/07/10 08:23:53;;;;;;;0.40;0.40;;;16.90;99.90;;;;;;5037836;28;20202;-71
2022/07/10 08:26:41;;;;;;;0.50;0.50;;;16.90;99.90;;;;;;5038240;28;20218;-71
2022/07/10 08:29:30;;;;;;;0.40;0.40;;;16.90;99.90;;;;;;5036978;28;20437;-70
2022/07/10 08:32:18;;;;;;;0.40;0.40;;;17.00;99.90;;;;;;5038452;28;20201;-71
2022/07/10 08:35:08;;;;;;;0.50;0.50;;;16.80;99.90;;;;;;5037610;28;20218;-71
2022/07/10 08:37:57;;;;;;;0.67;0.60;;;16.90;99.90;;;;;;5037553;28;20210;-72
2022/07/10 08:40:47;;;;;;;0.40;0.40;;;16.70;99.90;;;;;;5036516;28;20244;-71
2022/07/10 08:43:35;;;;;;;0.80;0.50;;;16.90;99.90;;;;;;5037411;28;20425;-71
2022/07/10 08:46:24;;;;;;;2.00;0.80;;;17.20;99.90;;;;;;5038421;28;20204;-70
2022/07/10 08:49:13;;;;;;;0.97;0.97;;;17.20;99.90;;;;;;5037454;28;20427;-71
2022/07/10 08:52:05;;;;;;;1.13;0.90;;;17.00;99.90;;;;;;5037448;28;20198;-70
2022/07/10 08:54:53;;;;;;;1.23;0.67;;;17.10;99.90;;;;;;5036461;28;20225;-71
2022/07/10 08:57:44;;;;;;;0.50;0.50;;;17.20;99.90;;;;;;5052463;28;20221;-71
2022/07/10 09:00:32;;;;;;;1.00;0.63;;;17.40;99.90;;;;;;5057044;28;20197;-71
2022/07/10 09:03:20;;;;;;;0.40;0.40;;;17.40;99.90;;;;;;5052931;28;20205;-71
2022/07/10 09:06:08;;;;;;;0.50;0.50;;;17.40;99.90;;;;;;5053029;28;20221;-71
2022/07/10 09:09:02;;;;;;;0.40;0.40;;;17.50;99.90;;;;;;5051794;28;20700;-71
2022/07/10 09:11:57;;;;;;;0.50;0.50;;;17.40;99.90;;;;;;5053074;28;20205;-69
2022/07/10 09:14:46;;;;;;;0.60;0.60;;;17.50;99.90;;;;;;5053187;28;20224;-71
2022/07/10 09:17:50;;;;;;;0.65;0.60;;;17.90;99.90;;;;;;5053605;28;20724;-71
2022/07/10 09:20:40;;;;;;;1.70;0.60;;;18.10;99.90;;;;;;5053526;28;20204;-71
2022/07/10 09:23:28;;;;;;;0.73;0.73;;;18.40;99.90;;;;;;5053321;28;20201;-71
2022/07/10 09:26:18;;;;;;;0.80;0.80;;;18.30;99.90;;;;;;5053391;28;20263;-70
2022/07/10 09:29:07;;;;;;;0.50;0.50;;;18.20;99.90;;;;;;5053023;28;20695;-72
2022/07/10 09:31:58;;;;;;;3.33;0.80;;;18.00;99.90;;;;;;5053234;28;20201;-72
2022/07/10 09:34:47;;;;;;;0.65;0.65;;;17.70;99.90;;;;;;5052695;28;20210;-71
2022/07/10 09:37:40;;;;;;;0.40;0.40;;;17.60;99.90;;;;;;5052952;28;20262;-71
2022/07/10 09:40:28;;;;;;;0.80;0.80;;;17.50;99.90;;;;;;5052138;28;20571;-71
2022/07/10 09:43:16;;;;;;;0.50;0.50;;;17.50;99.90;;;;;;5052448;28;20575;-71
2022/07/10 09:46:09;;;;;;;11.23;1.60;;;17.50;99.90;;;;;;5053077;28;20221;-72
2022/07/10 09:49:07;;;;;;;1.02;0.68;;;17.70;99.90;;;;;;5054043;28;20201;-72
2022/07/10 09:51:56;;;;;;;1.08;0.75;;;17.70;99.90;;;;;;5053775;28;20280;-71
2022/07/10 09:54:46;;;;;;;0.50;0.50;;;17.90;99.90;;;;;;5052498;28;20669;-71
2022/07/10 09:57:34;;;;;;;1.35;1.25;;;18.20;99.90;;;;;;5053187;28;20237;-71
2022/07/10 10:00:26;;;;;;;0.50;0.50;;;18.60;99.90;;;;;;5054266;28;20204;-71
2022/07/10 10:03:16;;;;;;;3.05;1.10;;;18.80;99.90;;;;;;5054826;28;20563;-71
2022/07/10 10:06:11;;;;;;;0.80;0.80;;;18.80;99.90;;;;;;5053766;28;20221;-70
2022/07/10 10:09:05;;;;;;;3.50;2.00;;;18.80;99.90;;;;;;5054612;28;20202;-71
2022/07/10 10:11:59;;;;;;;0.50;0.50;;;18.70;99.90;;;;;;5054410;28;20468;-71
2022/07/10 10:14:47;;;;;;;1.77;1.58;;;18.50;99.90;;;;;;5054255;28;20204;-71
2022/07/10 10:17:36;;;;;;;0.40;0.40;;;18.70;99.90;;;;;;5053882;28;20225;-71
2022/07/10 10:20:41;;;;;;;0.40;0.40;;;18.60;99.90;;;;;;5053876;28;20669;-71
2022/07/10 10:23:32;;;;;;;0.57;0.57;;;18.70;99.90;;;;;;5054283;28;20201;-71
2022/07/10 10:26:22;;;;;;;0.52;0.50;;;19.30;99.90;;;;;;5054130;28;20220;-71
2022/07/10 10:29:10;;;;;;;0.60;0.50;;;19.20;99.90;;;;;;5053194;28;20213;-70
2022/07/10 10:31:59;;;;;;;0.50;0.50;;;19.00;99.90;;;;;;5053567;28;20259;-70
2022/07/10 10:34:55;;;;;;;0.40;0.40;;;19.40;99.90;;;;;;5053660;28;20254;-71
2022/07/10 10:37:44;;;;;;;0.40;0.40;;;19.80;99.90;;;;;;5053850;28;20229;-70
2022/07/10 10:40:36;;;;;;;0.40;0.40;;;19.50;99.90;;;;;;5053486;28;20197;-71
2022/07/10 10:43:25;;;;;;;0.40;0.40;;;19.10;99.90;;;;;;5054776;28;20201;-71
2022/07/10 10:46:25;;;;;;;0.70;0.70;;;19.00;99.90;;;;;;5052358;28;20588;-71
2022/07/10 10:49:14;;;;;;;5.03;2.88;;;18.60;99.90;;;;;;5053242;28;20198;-71
2022/07/10 10:52:07;;;;;;;1.58;1.08;;;18.70;99.90;;;;;;5056638;28;20592;-71
2022/07/10 10:55:09;;;;;;;0.68;0.68;;;18.70;99.90;;;;;;5058296;28;20209;-71
2022/07/10 10:58:14;;;;;;;0.40;0.40;;;18.80;99.90;;;;;;5053826;28;20205;-70
2022/07/10 11:01:04;;;;;;;0.40;0.40;;;18.80;99.90;;;;;;5052343;28;20220;-71
2022/07/10 11:04:14;;;;;;;0.57;0.57;;;19.00;99.90;;;;;;5053637;28;20391;-70
2022/07/10 11:07:02;;;;;;;0.45;0.45;;;19.50;99.90;;;;;;5051882;28;20221;-71
2022/07/10 11:09:50;;;;;;;0.50;0.50;;;20.00;99.90;;;;;;5051855;28;20200;-71
2022/07/10 11:13:00;;;;;;;1.23;0.60;;;20.10;99.90;;;;;;5052362;28;20205;-71
2022/07/10 11:15:52;;;;;;;0.70;0.70;;;20.40;99.90;;;;;;5051601;28;20213;-71
2022/07/10 11:18:42;;;;;;;0.70;0.60;;;20.30;99.90;;;;;;5051828;28;20202;-70
2022/07/10 11:21:48;;;;;;;0.40;0.40;;;20.00;99.90;;;;;;5052897;28;20576;-71
2022/07/10 11:24:51;;;;;;;1.63;0.60;;;19.60;99.90;;;;;;5052034;28;20201;-71
2022/07/10 11:28:08;;;;;;;0.40;0.40;;;19.60;99.90;;;;;;5051456;28;20217;-71
2022/07/10 11:30:58;;;;;;;0.40;0.40;;;19.90;99.90;;;;;;5053173;28;20193;-71
2022/07/10 11:33:48;;;;;;;10.20;0.82;;;20.20;99.90;;;;;;5055585;28;20197;-71
2022/07/10 11:36:39;;;;;;;0.40;0.40;;;20.20;99.90;;;;;;5054254;28;20598;-70
2022/07/10 11:39:28;;;;;;;1.80;0.80;;;20.10;99.90;;;;;;5044655;28;20205;-69
2022/07/10 11:42:16;;;;;;;0.40;0.40;;;20.10;99.90;;;;;;5037264;28;20686;-69
2022/07/10 11:45:25;;;;;;;1.00;0.73;;;19.50;99.90;;;;;;5035802;28;20209;-70
2022/07/10 11:48:23;;;;;;;2.15;1.30;;;19.00;99.90;;;;;;5036949;28;20202;-69
2022/07/10 11:51:19;;;;;;;0.88;0.75;;;18.90;99.90;;;;;;5036954;28;20268;-71
2022/07/10 11:54:10;;;;;;;0.40;0.40;;;18.90;99.90;;;;;;5037142;28;20698;-69
2022/07/10 11:57:06;;;;;;;0.57;0.50;;;19.10;99.90;;;;;;5045135;28;20228;-69
2022/07/10 11:59:54;;;;;;;0.40;0.40;;;19.50;99.90;;;;;;5055265;28;20216;-69
2022/07/10 12:02:42;;;;;;;0.40;0.40;;;19.90;99.90;;;;;;5054921;28;20669;-69
2022/07/10 12:05:36;;;;;;;1.98;0.93;;;20.40;98.80;;;;;;5054165;28;20704;-71
2022/07/10 12:08:24;;;;;;;0.40;0.40;;;20.80;97.70;;;;;;5056420;28;20251;-70
2022/07/10 12:11:14;;;;;;;0.50;0.50;;;20.80;98.10;;;;;;5054873;28;20198;-70
2022/07/10 12:14:14;;;;;;;0.50;0.50;;;20.60;97.60;;;;;;5056119;28;20208;-69
2022/07/10 12:17:11;;;;;;;0.50;0.50;;;20.70;97.20;;;;;;5055189;28;20221;-69
2022/07/10 12:20:00;;;;;;;0.40;0.40;;;20.90;96.10;;;;;;5054524;28;20201;-70
2022/07/10 12:22:49;;;;;;;0.40;0.40;;;21.20;95.70;;;;;;5055446;28;20678;-70
2022/07/10 12:25:38;;;;;;;0.40;0.40;;;21.50;96.30;;;;;;5054593;28;20205;-69
2022/07/10 12:28:26;;;;;;;1.77;1.67;;;21.70;95.70;;;;;;5054666;28;20712;-69
2022/07/10 12:31:21;;;;;;;1.63;0.45;;;21.50;93.80;;;;;;5054944;28;20197;-71
2022/07/10 12:34:09;;;;;;;0.40;0.40;;;21.20;94.50;;;;;;5055381;28;20696;-70
2022/07/10 12:36:57;;;;;;;0.40;0.40;;;21.20;94.30;;;;;;5054087;28;20732;-69
2022/07/10 12:39:53;;;;;;;6.72;0.85;;;21.40;93.80;;;;;;5054404;28;20243;-69
2022/07/10 12:42:41;;;;;;;0.50;0.50;;;21.90;93.20;;;;;;5053077;28;20212;-70
2022/07/10 12:45:30;;;;;;;0.43;0.43;;;22.70;92.30;;;;;;5053326;28;20201;-69
2022/07/10 12:48:23;;;;;;;0.40;0.40;;;23.20;90.50;;;;;;5054719;28;20202;-70
2022/07/10 12:51:25;;;;;;;0.77;0.77;;;23.10;90.30;;;;;;5054209;28;20193;-70
2022/07/10 12:54:31;;;;;;;0.40;0.40;;;23.10;90.50;;;;;;5055447;28;20708;-70
2022/07/10 12:57:20;;;;;;;0.43;0.43;;;23.80;89.30;;;;;;5053551;28;20231;-72
2022/07/10 13:00:13;;;;;;;0.40;0.40;;;25.60;84.40;;;;;;5054577;28;20201;-70
2022/07/10 13:03:02;;;;;;;0.77;0.60;;;27.10;80.30;;;;;;5055042;28;20220;-70
2022/07/10 13:05:51;;;;;;;0.40;0.40;;;26.70;74.20;;;;;;5054891;28;20247;-70
2022/07/10 13:08:46;;;;;;;0.43;0.43;;;26.50;74.50;;;;;;5055159;28;20254;-71
2022/07/10 13:11:34;;;;;;;0.57;0.57;;;25.60;76.90;;;;;;5053229;28;20216;-70
2022/07/10 13:14:24;;;;;;;0.50;0.50;;;23.70;79.20;;;;;;5054731;28;20212;-70
2022/07/10 13:17:12;;;;;;;0.40;0.40;;;23.00;83.20;;;;;;5054177;28;20228;-70
2022/07/10 13:20:00;;;;;;;0.50;0.40;;;22.60;84.80;;;;;;5055195;28;20763;-70
2022/07/10 13:22:48;;;;;;;0.40;0.40;;;22.50;84.40;;;;;;5055169;28;20198;-69
2022/07/10 13:25:37;;;;;;;3.53;0.60;;;22.30;83.80;;;;;;5054275;28;20208;-69
2022/07/10 13:28:26;;;;;;;0.60;0.52;;;22.30;84.30;;;;;;5055243;28;20673;-71
2022/07/10 13:31:15;;;;;;;0.40;0.40;;;22.60;83.60;;;;;;5054706;28;20255;-73
2022/07/10 13:34:03;;;;;;;0.40;0.40;;;23.10;83.90;;;;;;5055588;28;20285;-69
2022/07/10 13:36:53;;;;;;;2.45;0.70;;;23.80;83.00;;;;;;5053583;28;20275;-70
2022/07/10 13:39:42;;;;;;;0.60;0.60;;;24.60;80.70;;;;;;5054017;28;20674;-69
2022/07/10 13:42:30;;;;;;;1.30;0.60;;;27.00;76.70;;;;;;5053743;28;20682;-70
2022/07/10 13:45:18;;;;;;;3.13;0.80;;;30.20;68.20;;;;;;5054252;28;20209;-70
2022/07/10 13:48:07;;;;;;;2.00;1.92;;;31.70;63.60;;;;;;5056817;28;20205;-71
2022/07/10 13:50:55;;;;;;;1.13;1.13;;;31.10;60.50;;;;;;5058889;28;20209;-70
2022/07/10 13:53:44;;;;;;;0.70;0.43;;;28.80;62.40;;;;;;5054162;28;20193;-70
2022/07/10 13:56:32;;;;;;;0.40;0.40;;;26.70;65.20;;;;;;5054185;28;20228;-71
2022/07/10 13:59:20;;;;;;;0.77;0.40;;;25.50;69.00;;;;;;5052966;28;20197;-70
2022/07/10 14:02:08;;;;;;;0.50;0.50;;;26.30;67.70;;;;;;5053541;28;20205;-71
2022/07/10 14:05:05;;;;;;;1.25;1.15;;;29.10;65.60;;;;;;5052424;28;20213;-71
2022/07/10 14:07:53;;;;;;;3.30;0.82;;;31.50;59.40;;;;;;5053774;28;20259;-71
2022/07/10 14:10:41;;;;;;;3.13;1.83;;;33.30;56.30;;;;;;5056541;28;20674;-71
2022/07/10 14:13:29;;;;;;;0.60;0.50;;;34.00;52.70;;;;;;5054070;28;20558;-70
2022/07/10 14:16:17;;;;;;;0.45;0.45;;;33.60;52.60;;;;;;5054133;28;20259;-70
2022/07/10 14:19:06;;;;;;;0.40;0.40;;;30.60;54.30;;;;;;5051512;28;20405;-73
2022/07/10 14:22:00;;;;;;;0.50;0.50;;;27.60;58.10;;;;;;5053836;28;20208;-70
2022/07/10 14:24:49;;;;;;;0.40;0.40;;;25.90;62.00;;;;;;5052050;28;20200;-69
2022/07/10 14:27:37;;;;;;;0.40;0.40;;;24.60;64.40;;;;;;5052437;28;20221;-69
2022/07/10 14:30:25;;;;;;;0.50;0.50;;;24.60;66.20;;;;;;5054541;28;20205;-70
2022/07/10 14:33:14;;;;;;;0.50;0.50;;;24.10;67.20;;;;;;5064685;28;20201;-70
2022/07/10 14:36:02;;;;;;;0.55;0.55;;;23.90;67.70;;;;;;5068558;28;20225;-72
2022/07/10 14:38:52;;;;;;;0.40;0.40;;;24.80;66.00;;;;;;5068307;28;20293;-72
2022/07/10 14:41:40;;;;;;;0.50;0.50;;;24.80;66.50;;;;;;5070584;28;20202;-71
2022/07/10 14:44:31;;;;;;;0.40;0.40;;;24.00;67.40;;;;;;5070032;28;20680;-72
2022/07/10 14:47:24;;;;;;;0.40;0.40;;;;;;;;;;5071034;28;20217;-75
2022/07/10 14:50:13;;;;;;;1.85;0.40;;;23.30;70.20;;;;;;5051953;28;20209;-71
2022/07/10 14:53:01;;;;;;;0.40;0.40;;;23.10;70.40;;;;;;5051081;28;20621;-70